UAL531 KMCO-KDEN
Flight info
| Callsign | UAL531 |
|---|---|
| Flight time | N/A |
| Altitude | 32000 |
| Route | RDSOX1 JFRYS PATOY Q116 JAWJA CABLO KT15M KM27I KK42C KIISS CLASH5 |
| Aircraft | B753/M-SDE3FGHIM3RWXY/LB1 |
Departure
| Time | 2026-05-06 15:37 |
|---|---|
| Airport | Orlando International Airport (KMCO) |
Arrival
| Time | N/A |
|---|---|
| Airport | Denver International Airport (KDEN) |
| Time | Latitude | Longitude | Altitude | Speed | Heading |
|---|---|---|---|---|---|
| 2026-05-06 15:08 | 28.42630 | -81.31438 | 88 ft | 0 kts | 323° |
| 2026-05-06 15:17 | 28.42621 | -81.31430 | 88 ft | 2 kts | 323° |
| 2026-05-06 15:18 | 28.42609 | -81.31419 | 87 ft | 2 kts | 323° |
| 2026-05-06 15:18 | 28.42596 | -81.31409 | 87 ft | 2 kts | 323° |
| 2026-05-06 15:18 | 28.42584 | -81.31399 | 87 ft | 2 kts | 323° |
| 2026-05-06 15:18 | 28.42573 | -81.31389 | 86 ft | 2 kts | 323° |
| 2026-05-06 15:19 | 28.42561 | -81.31379 | 86 ft | 2 kts | 323° |
| 2026-05-06 15:19 | 28.42553 | -81.31372 | 86 ft | 1 kts | 323° |
| 2026-05-06 15:19 | 28.42544 | -81.31360 | 86 ft | 2 kts | 285° |
| 2026-05-06 15:19 | 28.42543 | -81.31348 | 86 ft | 0 kts | 260° |
| 2026-05-06 15:20 | 28.42544 | -81.31342 | 86 ft | 0 kts | 257° |
| 2026-05-06 15:29 | 28.42539 | -81.31369 | 86 ft | 7 kts | 258° |
| 2026-05-06 15:29 | 28.42525 | -81.31439 | 87 ft | 9 kts | 257° |
| 2026-05-06 15:29 | 28.42515 | -81.31497 | 89 ft | 6 kts | 258° |
| 2026-05-06 15:30 | 28.42508 | -81.31534 | 89 ft | 7 kts | 262° |
| 2026-05-06 15:30 | 28.42527 | -81.31601 | 89 ft | 8 kts | 330° |
| 2026-05-06 15:30 | 28.42588 | -81.31622 | 89 ft | 9 kts | 346° |
| 2026-05-06 15:30 | 28.42652 | -81.31638 | 89 ft | 10 kts | 348° |
| 2026-05-06 15:31 | 28.42741 | -81.31659 | 89 ft | 13 kts | 349° |
| 2026-05-06 15:31 | 28.42833 | -81.31683 | 89 ft | 12 kts | 346° |
| 2026-05-06 15:31 | 28.42915 | -81.31713 | 89 ft | 11 kts | 329° |
| 2026-05-06 15:32 | 28.43041 | -81.31837 | 89 ft | 15 kts | 355° |
| 2026-05-06 15:32 | 28.43140 | -81.31843 | 90 ft | 13 kts | 1° |
| 2026-05-06 15:32 | 28.43250 | -81.31840 | 89 ft | 17 kts | 1° |
| 2026-05-06 15:32 | 28.43370 | -81.31843 | 90 ft | 16 kts | 0° |
| 2026-05-06 15:33 | 28.43485 | -81.31844 | 92 ft | 17 kts | 2° |
| 2026-05-06 15:33 | 28.43609 | -81.31844 | 93 ft | 18 kts | 359° |
| 2026-05-06 15:33 | 28.43748 | -81.31846 | 92 ft | 20 kts | 359° |
| 2026-05-06 15:33 | 28.43894 | -81.31847 | 93 ft | 20 kts | 360° |
| 2026-05-06 15:34 | 28.44021 | -81.31885 | 93 ft | 18 kts | 347° |
| 2026-05-06 15:34 | 28.44140 | -81.31898 | 93 ft | 16 kts | 360° |
| 2026-05-06 15:34 | 28.44245 | -81.31899 | 93 ft | 14 kts | 359° |
| 2026-05-06 15:34 | 28.44341 | -81.31901 | 93 ft | 12 kts | 359° |
| 2026-05-06 15:35 | 28.44426 | -81.31902 | 94 ft | 11 kts | 359° |
| 2026-05-06 15:35 | 28.44520 | -81.31904 | 93 ft | 16 kts | 1° |
| 2026-05-06 15:35 | 28.44647 | -81.31906 | 93 ft | 20 kts | 0° |
| 2026-05-06 15:35 | 28.44787 | -81.31912 | 92 ft | 18 kts | 339° |
| 2026-05-06 15:36 | 28.44825 | -81.32033 | 93 ft | 16 kts | 269° |
| 2026-05-06 15:36 | 28.44824 | -81.32156 | 93 ft | 15 kts | 269° |
| 2026-05-06 15:36 | 28.44777 | -81.32227 | 93 ft | 10 kts | 199° |
| 2026-05-06 15:36 | 28.44718 | -81.32229 | 93 ft | 21 kts | 180° |
| 2026-05-06 15:37 | 28.44335 | -81.32223 | 96 ft | 86 kts | 179° |
| 2026-05-06 15:37 | 28.43530 | -81.32214 | 93 ft | 145 kts | 180° |
| 2026-05-06 15:37 | 28.42356 | -81.32198 | 250 ft | 182 kts | 178° |
| 2026-05-06 15:37 | 28.41080 | -81.32164 | 900 ft | 182 kts | 178° |
| 2026-05-06 15:38 | 28.39786 | -81.32307 | 1212 ft | 200 kts | 199° |
| 2026-05-06 15:38 | 28.38479 | -81.33002 | 1433 ft | 215 kts | 205° |
| 2026-05-06 15:38 | 28.37050 | -81.33821 | 1481 ft | 237 kts | 206° |
| 2026-05-06 15:38 | 28.35562 | -81.34753 | 1687 ft | 251 kts | 218° |
| 2026-05-06 15:39 | 28.34388 | -81.36339 | 1510 ft | 279 kts | 245° |
| 2026-05-06 15:39 | 28.34006 | -81.38443 | 2017 ft | 273 kts | 273° |
| 2026-05-06 15:39 | 28.34300 | -81.40555 | 2475 ft | 273 kts | 281° |
| 2026-05-06 15:39 | 28.34651 | -81.42660 | 2895 ft | 273 kts | 280° |
| 2026-05-06 15:40 | 28.34999 | -81.44804 | 3282 ft | 275 kts | 280° |
| 2026-05-06 15:40 | 28.35326 | -81.46808 | 3713 ft | 274 kts | 281° |
| 2026-05-06 15:40 | 28.35516 | -81.47981 | 3971 ft | 281 kts | 281° |
| 2026-05-06 15:41 | 28.35863 | -81.50124 | 4993 ft | 276 kts | 281° |
| 2026-05-06 15:41 | 28.36211 | -81.52265 | 5828 ft | 280 kts | 282° |
| 2026-05-06 15:41 | 28.36556 | -81.54397 | 6650 ft | 281 kts | 282° |
| 2026-05-06 15:41 | 28.36913 | -81.56592 | 7456 ft | 284 kts | 282° |
| 2026-05-06 15:42 | 28.37267 | -81.58781 | 8230 ft | 287 kts | 283° |
| 2026-05-06 15:42 | 28.37630 | -81.61033 | 9012 ft | 289 kts | 283° |
| 2026-05-06 15:42 | 28.37988 | -81.63253 | 9759 ft | 291 kts | 283° |
| 2026-05-06 15:42 | 28.38353 | -81.65520 | 10461 ft | 296 kts | 283° |
| 2026-05-06 15:43 | 28.38735 | -81.67878 | 10783 ft | 315 kts | 283° |
| 2026-05-06 15:43 | 28.39141 | -81.70396 | 11071 ft | 334 kts | 283° |
| 2026-05-06 15:43 | 28.39574 | -81.73088 | 11343 ft | 353 kts | 283° |
| 2026-05-06 15:43 | 28.40026 | -81.75903 | 11565 ft | 371 kts | 283° |
| 2026-05-06 15:44 | 28.40484 | -81.78777 | 12214 ft | 374 kts | 283° |
| 2026-05-06 15:44 | 28.40949 | -81.81693 | 12887 ft | 377 kts | 283° |
| 2026-05-06 15:44 | 28.41418 | -81.84637 | 13485 ft | 380 kts | 283° |
| 2026-05-06 15:44 | 28.41888 | -81.87589 | 14182 ft | 380 kts | 283° |
| 2026-05-06 15:45 | 28.42359 | -81.90546 | 14782 ft | 383 kts | 283° |
| 2026-05-06 15:45 | 28.42617 | -81.93554 | 15343 ft | 389 kts | 274° |
| 2026-05-06 15:45 | 28.42658 | -81.96640 | 15950 ft | 390 kts | 275° |
| 2026-05-06 15:45 | 28.42713 | -81.99699 | 16479 ft | 393 kts | 275° |
| 2026-05-06 15:46 | 28.42764 | -82.02793 | 17085 ft | 393 kts | 275° |
| 2026-05-06 15:46 | 28.42815 | -82.05904 | 17568 ft | 397 kts | 274° |
| 2026-05-06 15:46 | 28.42865 | -82.09033 | 18145 ft | 398 kts | 274° |
| 2026-05-06 15:46 | 28.42915 | -82.12165 | 18694 ft | 399 kts | 274° |
| 2026-05-06 15:47 | 28.42964 | -82.15321 | 19165 ft | 402 kts | 274° |
| 2026-05-06 15:47 | 28.43012 | -82.18501 | 19669 ft | 404 kts | 274° |
| 2026-05-06 15:47 | 28.43061 | -82.21710 | 20177 ft | 406 kts | 274° |
| 2026-05-06 15:47 | 28.43108 | -82.24896 | 20676 ft | 408 kts | 274° |
| 2026-05-06 15:48 | 28.43155 | -82.28138 | 21160 ft | 409 kts | 274° |
| 2026-05-06 15:48 | 28.43201 | -82.31338 | 21609 ft | 412 kts | 274° |
| 2026-05-06 15:48 | 28.43246 | -82.34586 | 22118 ft | 412 kts | 274° |
| 2026-05-06 15:48 | 28.43303 | -82.37862 | 22511 ft | 415 kts | 276° |
| 2026-05-06 15:49 | 28.43701 | -82.41096 | 22996 ft | 412 kts | 286° |
| 2026-05-06 15:49 | 28.44607 | -82.44165 | 23398 ft | 414 kts | 295° |
| 2026-05-06 15:49 | 28.46011 | -82.47008 | 23915 ft | 414 kts | 305° |
| 2026-05-06 15:49 | 28.47854 | -82.49526 | 24347 ft | 417 kts | 315° |
| 2026-05-06 15:50 | 28.50096 | -82.51644 | 24794 ft | 421 kts | 324° |
| 2026-05-06 15:50 | 28.52552 | -82.53437 | 25238 ft | 424 kts | 326° |
| 2026-05-06 15:50 | 28.55067 | -82.55218 | 25666 ft | 426 kts | 326° |
| 2026-05-06 15:50 | 28.57605 | -82.56979 | 26119 ft | 427 kts | 326° |
| 2026-05-06 15:51 | 28.60145 | -82.58720 | 26556 ft | 429 kts | 326° |
| 2026-05-06 15:51 | 28.62710 | -82.60465 | 26920 ft | 432 kts | 326° |
| 2026-05-06 15:51 | 28.65320 | -82.62232 | 27387 ft | 433 kts | 326° |
| 2026-05-06 15:51 | 28.67898 | -82.63972 | 27774 ft | 435 kts | 326° |
| 2026-05-06 15:52 | 28.70515 | -82.65736 | 28216 ft | 436 kts | 326° |
| 2026-05-06 15:52 | 28.73127 | -82.67495 | 28557 ft | 439 kts | 326° |
| 2026-05-06 15:52 | 28.75755 | -82.69263 | 29050 ft | 438 kts | 326° |
| 2026-05-06 15:52 | 28.78368 | -82.71021 | 29645 ft | 435 kts | 326° |
| 2026-05-06 15:53 | 28.80967 | -82.72770 | 30248 ft | 431 kts | 326° |
| 2026-05-06 15:53 | 28.83570 | -82.74523 | 30791 ft | 429 kts | 326° |
| 2026-05-06 15:53 | 28.86137 | -82.76253 | 31275 ft | 427 kts | 326° |
| 2026-05-06 15:53 | 28.88691 | -82.77975 | 31737 ft | 425 kts | 326° |
| 2026-05-06 15:54 | 28.91228 | -82.79687 | 32072 ft | 425 kts | 325° |
| 2026-05-06 15:54 | 28.93799 | -82.81422 | 32068 ft | 426 kts | 325° |
| 2026-05-06 15:54 | 28.98866 | -82.84843 | 32070 ft | 420 kts | 325° |
| 2026-05-06 15:55 | 29.03936 | -82.88274 | 32070 ft | 423 kts | 325° |
| 2026-05-06 15:55 | 29.08841 | -82.91878 | 32072 ft | 420 kts | 320° |
| 2026-05-06 15:56 | 29.13600 | -82.95789 | 32073 ft | 420 kts | 321° |
| 2026-05-06 15:56 | 29.18339 | -82.99668 | 32073 ft | 419 kts | 321° |
| 2026-05-06 15:57 | 29.23050 | -83.03525 | 32071 ft | 417 kts | 321° |
| 2026-05-06 15:57 | 29.27804 | -83.07419 | 32071 ft | 419 kts | 321° |
| 2026-05-06 15:58 | 29.32536 | -83.11298 | 32070 ft | 417 kts | 320° |
| 2026-05-06 15:58 | 29.37262 | -83.15177 | 32071 ft | 419 kts | 320° |
| 2026-05-06 15:59 | 29.41991 | -83.19062 | 32067 ft | 417 kts | 320° |
| 2026-05-06 15:59 | 29.46701 | -83.22938 | 32067 ft | 416 kts | 321° |
| 2026-05-06 16:00 | 29.51378 | -83.26790 | 32072 ft | 416 kts | 320° |
| 2026-05-06 16:00 | 29.56112 | -83.30693 | 32069 ft | 417 kts | 320° |
| 2026-05-06 16:01 | 29.60806 | -83.34569 | 32067 ft | 417 kts | 320° |
| 2026-05-06 16:01 | 29.65539 | -83.38481 | 32064 ft | 417 kts | 320° |
| 2026-05-06 16:02 | 29.70212 | -83.42347 | 32062 ft | 416 kts | 320° |
| 2026-05-06 16:02 | 29.74933 | -83.46258 | 32060 ft | 416 kts | 320° |
| 2026-05-06 16:03 | 29.79617 | -83.50143 | 32061 ft | 416 kts | 320° |
| 2026-05-06 16:03 | 29.84323 | -83.54051 | 32061 ft | 416 kts | 320° |
| 2026-05-06 16:04 | 29.89001 | -83.57938 | 32063 ft | 416 kts | 320° |
| 2026-05-06 16:04 | 29.93692 | -83.61839 | 32063 ft | 415 kts | 320° |
| 2026-05-06 16:05 | 29.98411 | -83.65771 | 32071 ft | 415 kts | 320° |
| 2026-05-06 16:05 | 30.03063 | -83.69649 | 32077 ft | 414 kts | 320° |
| 2026-05-06 16:06 | 30.07749 | -83.73560 | 32076 ft | 414 kts | 319° |